CheckWX is a tool to help pilots better visualize weather data.  It is not intended as a substitute for an official pre-flight weather briefing.

14:57:50 UTC

KRID METAR
Richmond Municipal Airport
Richmond, Indiana, USA
Current

23 mins ago

KRID 111435Z AUTO 23010KT 10SM CLR M05/M06 A3037 RMK AO2
Observed
Dec-11 @ 14:35 UTC
Wind
  • 230° at 10 KTS
Visibility
10 SM
Flight Rules
VFR
Cloud Levels
  • Clear skies
Temperature
-5°C / 23°F
Dewpoint
-6°C / 21°F
Humidity
93%
Altimeter
30.37" Hg
Pressure
1028.42 hPa
Previous

43 mins ago

KRID 111415Z AUTO 21011KT 10SM CLR M06/M06 A3036 RMK AO2
Observed
Dec-11 @ 14:15 UTC
Wind
  • 210° at 11 KTS
Visibility
10 SM
Flight Rules
VFR
Cloud Levels
  • Clear skies
Temperature
-6°C / 21°F
Dewpoint
-6°C / 21°F
Humidity
100%
Altimeter
30.36" Hg
Pressure
1028.12 hPa
Previous

14 hours ago

KRID 110115Z AUTO 25006KT 10SM CLR M06/M09 A3033 RMK AO2
Observed
Dec-11 @ 01:15 UTC
Wind
  • 250° at 6 KTS
Visibility
10 SM
Flight Rules
VFR
Cloud Levels
  • Clear skies
Temperature
-6°C / 21°F
Dewpoint
-9°C / 16°F
Humidity
80%
Altimeter
30.33" Hg
Pressure
1027.12 hPa